Skip Navigation Links
NOAA logo - Click to go to the NOAA homepage
NOAA's National Weather Service
Alaska Aviation Weather Unit
  NWS logo - Click to go to the NWS homepage
Left Navbar Graphic     23 AKDT = 07 GMT

   
NOAA is celebrating 200 years of science, service, and stewardship. Visit the NOAA 200th celebration Web site to learn more.
USA.gov is the U.S. Government's official Web portal to all Federal, state and local government Web resources and services.
Facebook
NWS on Facebook

Important Change Regarding the AAWU Web Presence

 

Over the last several months, the AAWU has been working to navigate its webpages to a nationally supported server. Security, as well as other needs, have necessitated the change.  In the process, we have made an effort to enhance the functionality of our website, as well as some of our products. As of June 20, 2017, aawu.arh.noaa.gov will be discontinued. The new AAWU web address is weather.gov/aawu. It is now live and will run in-parallel with the old site until it is discontinued. Please send any feedback or questions regarding the new webpages to nws.ar.aawu.webauthors@noaa.gov.  Thank you for your patience during this time of transition.
AAWU Home :: Display TAF Add Bookmark
PAHP 240156Z AUTO 18010KT 10SM FEW080 07/01 A2972 RMK AO2 SLP100
     T00720006=

METAR PAHP 240256Z AUTO 18008KT 10SM FEW032 07/01 A2970 RMK AO2 RAB27E47
     SLP096 P0000 60000 T00670011 58015=

SPECI PAHP 240331Z AUTO 20007KT 10SM BKN026 06/01 A2969 RMK AO2=

SPECI PAHP 240338Z AUTO 19007KT 10SM SCT026 06/01 A2969 RMK AO2=

METAR PAHP 240356Z AUTO VRB03KT 10SM FEW060 06/01 A2968 RMK AO2 SLP087
     T00610006=

METAR PAHP 240456Z AUTO 16004KT 10SM FEW027 06/01 A2966 RMK AO2 RAB21E49
     SLP082 P0000 T00610006=

METAR PAHP 240556Z AUTO 10003KT 10SM -RA OVC021 06/02 A2965 RMK AO2
     RAB01 SLP077 P0000 60000 T00560017 10072 20056 56019=

METAR PAHP 240656Z AUTO 32004KT 10SM -RA OVC019 05/02 A2963 RMK AO2
     SLP072 P0001 T00500017=


NOAA's National Weather Service
Alaska Aviation Weather Unit
6930 Sand Lake Road
Anchorage, AK 99502-1845
Disclaimer
Credits
Glossary
Privacy Policy
About Us
Career Opportunities
Contact AAWU Internet Services Site last modified: April, 17th 2012